Time,TemperatureF,DewpointF,PressureIn,WindDirection,WindDirectionDegrees,WindSpeedMPH,WindSpeedGustMPH,Humidity,HourlyPrecipIn,Conditions,Clouds,dailyrainin,SolarRadiationWatts/m^2,SoftwareType,DateUTC
2013-03-05 00:01:00,20.0,8.0,-100.00,ESE,112,5.0,12.0,59,0.00,,,0.00,1.000000,,2013-03-05 06:01:00,
2013-03-05 00:11:00,20.0,8.0,-100.00,ESE,112,5.0,12.0,59,0.00,,,0.00,1.000000,,2013-03-05 06:11:00,
2013-03-05 00:22:00,20.0,8.0,-100.00,ESE,112,5.0,12.0,59,0.00,,,0.00,1.000000,,2013-03-05 06:22:00,
2013-03-05 00:32:00,20.0,8.0,-100.00,ESE,112,5.0,12.0,59,0.00,,,0.00,1.000000,,2013-03-05 06:32:00,
2013-03-05 00:52:00,20.0,12.0,-100.00,East,99,2.0,7.0,70,0.00,,,0.00,1.000000,,2013-03-05 06:52:00,
2013-03-05 01:01:00,20.0,12.0,-100.00,East,99,2.0,7.0,70,0.00,,,0.00,1.000000,,2013-03-05 07:01:00,
2013-03-05 01:11:00,20.0,12.0,-100.00,East,99,2.0,7.0,70,0.00,,,0.00,1.000000,,2013-03-05 07:11:00,
2013-03-05 01:22:00,20.0,12.0,-100.00,East,99,2.0,7.0,70,0.00,,,0.00,1.000000,,2013-03-05 07:22:00,
2013-03-05 01:31:00,20.0,12.0,-100.00,East,99,2.0,7.0,70,0.00,,,0.00,1.000000,,2013-03-05 07:31:00,
2013-03-05 01:52:00,19.0,12.0,-100.00,East,99,3.0,6.0,74,0.00,,,0.00,1.000000,,2013-03-05 07:52:00,
2013-03-05 02:02:00,19.0,12.0,-100.00,East,99,3.0,6.0,74,0.00,,,0.00,1.000000,,2013-03-05 08:02:00,
2013-03-05 02:11:00,19.0,12.0,-100.00,East,99,3.0,6.0,74,0.00,,,0.00,1.000000,,2013-03-05 08:11:00,
2013-03-05 02:21:00,19.0,12.0,-100.00,East,99,3.0,6.0,74,0.00,,,0.00,1.000000,,2013-03-05 08:21:00,
2013-03-05 02:31:00,19.0,12.0,-100.00,East,99,3.0,6.0,74,0.00,,,0.00,1.000000,,2013-03-05 08:31:00,
2013-03-05 02:52:00,20.0,14.0,-100.00,ESE,107,3.0,5.0,78,0.00,,,0.00,1.000000,,2013-03-05 08:52:00,
2013-03-05 03:01:00,20.0,14.0,-100.00,ESE,107,3.0,5.0,78,0.00,,,0.00,1.000000,,2013-03-05 09:01:00,
2013-03-05 03:11:00,20.0,14.0,-100.00,ESE,107,3.0,5.0,78,0.00,,,0.00,1.000000,,2013-03-05 09:11:00,
2013-03-05 03:21:00,20.0,14.0,-100.00,ESE,107,3.0,5.0,78,0.00,,,0.00,1.000000,,2013-03-05 09:21:00,
2013-03-05 03:31:00,20.0,14.0,-100.00,ESE,107,3.0,5.0,78,0.00,,,0.00,1.000000,,2013-03-05 09:31:00,
2013-03-05 03:52:00,20.0,14.0,-100.00,East,81,4.0,6.0,78,0.00,,,0.00,1.000000,,2013-03-05 09:52:00,
2013-03-05 04:01:00,20.0,14.0,-100.00,East,81,4.0,6.0,78,0.00,,,0.00,1.000000,,2013-03-05 10:01:00,
2013-03-05 04:11:00,20.0,14.0,-100.00,East,81,4.0,6.0,78,0.00,,,0.00,1.000000,,2013-03-05 10:11:00,
2013-03-05 04:21:00,20.0,14.0,-100.00,East,81,4.0,6.0,78,0.00,,,0.00,1.000000,,2013-03-05 10:21:00,
2013-03-05 04:32:00,20.0,14.0,-100.00,East,81,4.0,6.0,78,0.00,,,0.00,1.000000,,2013-03-05 10:32:00,
2013-03-05 05:01:00,20.0,14.0,-100.00,East,84,5.0,8.0,78,0.00,,,0.00,1.000000,,2013-03-05 11:01:00,
2013-03-05 05:11:00,20.0,14.0,-100.00,East,84,5.0,8.0,78,0.00,,,0.00,1.000000,,2013-03-05 11:11:00,
2013-03-05 05:22:00,20.0,14.0,-100.00,East,84,5.0,8.0,78,0.00,,,0.00,1.000000,,2013-03-05 11:22:00,
2013-03-05 05:32:00,20.0,14.0,-100.00,East,84,5.0,8.0,78,0.00,,,0.00,1.000000,,2013-03-05 11:32:00,
2013-03-05 05:52:00,20.0,12.0,-100.00,ENE,77,4.0,9.0,72,0.00,,,0.00,1.000000,,2013-03-05 11:52:00,
2013-03-05 06:02:00,20.0,12.0,-100.00,ENE,77,4.0,9.0,72,0.00,,,0.00,1.000000,,2013-03-05 12:02:00,
2013-03-05 06:12:00,20.0,12.0,-100.00,ENE,77,4.0,9.0,72,0.00,,,0.00,1.000000,,2013-03-05 12:12:00,
2013-03-05 06:22:00,20.0,12.0,-100.00,ENE,77,4.0,9.0,72,0.00,,,0.00,1.000000,,2013-03-05 12:22:00,
2013-03-05 06:32:00,20.0,12.0,-100.00,ENE,77,4.0,9.0,72,0.00,,,0.00,1.000000,,2013-03-05 12:32:00,
2013-03-05 07:02:00,20.0,11.0,-100.00,East,91,6.0,11.0,66,0.00,,,0.00,1.000000,,2013-03-05 13:02:00,
2013-03-05 07:11:00,20.0,11.0,-100.00,East,91,6.0,11.0,66,0.00,,,0.00,1.000000,,2013-03-05 13:11:00,
2013-03-05 07:21:00,20.0,11.0,-100.00,East,91,6.0,11.0,66,0.00,,,0.00,1.000000,,2013-03-05 13:21:00,
2013-03-05 07:32:00,20.0,11.0,-100.00,East,91,6.0,11.0,66,0.00,,,0.00,1.000000,,2013-03-05 13:32:00,
2013-03-05 07:52:00,21.0,8.0,-100.00,East,92,6.0,13.0,56,0.00,,,0.00,13.000000,,2013-03-05 13:52:00,
2013-03-05 08:02:00,21.0,8.0,-100.00,East,92,6.0,13.0,56,0.00,,,0.00,13.000000,,2013-03-05 14:02:00,
2013-03-05 08:11:00,21.0,8.0,-100.00,East,92,6.0,13.0,56,0.00,,,0.00,13.000000,,2013-03-05 14:11:00,
2013-03-05 08:21:00,21.0,8.0,-100.00,East,92,6.0,13.0,56,0.00,,,0.00,13.000000,,2013-03-05 14:21:00,
2013-03-05 08:32:00,21.0,8.0,-100.00,East,92,6.0,13.0,56,0.00,,,0.00,13.000000,,2013-03-05 14:32:00,
2013-03-05 09:01:00,22.0,8.0,-100.00,East,87,8.0,14.0,54,0.00,,,0.00,62.000000,,2013-03-05 15:01:00,
2013-03-05 09:11:00,22.0,8.0,-100.00,East,87,8.0,14.0,54,0.00,,,0.00,62.000000,,2013-03-05 15:11:00,
2013-03-05 09:21:00,22.0,8.0,-100.00,East,87,8.0,14.0,54,0.00,,,0.00,62.000000,,2013-03-05 15:21:00,
2013-03-05 09:32:00,22.0,8.0,-100.00,East,87,8.0,14.0,54,0.00,,,0.00,62.000000,,2013-03-05 15:32:00,
2013-03-05 10:01:00,24.0,10.0,-100.00,ENE,77,6.0,11.0,54,0.00,,,0.00,110.000000,,2013-03-05 16:01:00,
2013-03-05 10:11:00,24.0,10.0,-100.00,ENE,77,6.0,11.0,54,0.00,,,0.00,110.000000,,2013-03-05 16:11:00,
2013-03-05 10:21:00,24.0,10.0,-100.00,ENE,77,6.0,11.0,54,0.00,,,0.00,110.000000,,2013-03-05 16:21:00,
2013-03-05 10:32:00,24.0,10.0,-100.00,ENE,77,6.0,11.0,54,0.00,,,0.00,110.000000,,2013-03-05 16:32:00,
2013-03-05 10:52:00,27.0,10.0,-100.00,East,85,7.0,14.0,49,0.00,,,0.00,254.000000,,2013-03-05 16:52:00,
2013-03-05 11:01:00,27.0,10.0,-100.00,East,85,7.0,14.0,49,0.00,,,0.00,254.000000,,2013-03-05 17:01:00,
2013-03-05 11:11:00,27.0,10.0,-100.00,East,85,7.0,14.0,49,0.00,,,0.00,254.000000,,2013-03-05 17:11:00,
2013-03-05 11:21:00,27.0,10.0,-100.00,East,85,7.0,14.0,49,0.00,,,0.00,254.000000,,2013-03-05 17:21:00,
2013-03-05 11:32:00,27.0,10.0,-100.00,East,85,7.0,14.0,49,0.00,,,0.00,254.000000,,2013-03-05 17:32:00,
2013-03-05 11:53:00,29.0,14.0,-100.00,ENE,58,6.0,12.0,53,0.00,,,0.00,433.000000,,2013-03-05 17:53:00,
2013-03-05 12:02:00,29.0,14.0,-100.00,ENE,58,6.0,12.0,53,0.00,,,0.00,433.000000,,2013-03-05 18:02:00,
2013-03-05 12:11:00,29.0,14.0,-100.00,ENE,58,6.0,12.0,53,0.00,,,0.00,433.000000,,2013-03-05 18:11:00,
2013-03-05 12:22:00,29.0,14.0,-100.00,ENE,58,6.0,12.0,53,0.00,,,0.00,433.000000,,2013-03-05 18:22:00,
2013-03-05 12:32:00,29.0,14.0,-100.00,ENE,58,6.0,12.0,53,0.00,,,0.00,433.000000,,2013-03-05 18:32:00,
2013-03-05 13:01:00,28.0,15.0,-100.00,ENE,59,5.0,10.0,58,0.00,,,0.00,308.000000,,2013-03-05 19:01:00,
2013-03-05 13:11:00,28.0,15.0,-100.00,ENE,59,5.0,10.0,58,0.00,,,0.00,308.000000,,2013-03-05 19:11:00,
2013-03-05 13:21:00,28.0,15.0,-100.00,ENE,59,5.0,10.0,58,0.00,,,0.00,308.000000,,2013-03-05 19:21:00,
2013-03-05 13:32:00,28.0,15.0,-100.00,ENE,59,5.0,10.0,58,0.00,,,0.00,308.000000,,2013-03-05 19:32:00,
2013-03-05 14:01:00,26.0,17.0,-100.00,NE,49,6.0,12.0,67,0.00,,,0.00,185.000000,,2013-03-05 20:01:00,
2013-03-05 14:11:00,26.0,17.0,-100.00,NE,49,6.0,12.0,67,0.00,,,0.00,185.000000,,2013-03-05 20:11:00,
2013-03-05 14:21:00,26.0,17.0,-100.00,NE,49,6.0,12.0,67,0.00,,,0.00,185.000000,,2013-03-05 20:21:00,
2013-03-05 14:32:00,26.0,17.0,-100.00,NE,49,6.0,12.0,67,0.00,,,0.00,185.000000,,2013-03-05 20:32:00,
2013-03-05 15:02:00,23.0,17.0,-100.00,ENE,58,9.0,15.0,79,0.00,,,0.00,117.000000,,2013-03-05 21:02:00,
2013-03-05 15:11:00,23.0,17.0,-100.00,ENE,58,9.0,15.0,79,0.00,,,0.00,117.000000,,2013-03-05 21:11:00,
2013-03-05 15:21:00,23.0,17.0,-100.00,ENE,58,9.0,15.0,79,0.00,,,0.00,117.000000,,2013-03-05 21:21:00,
2013-03-05 15:32:00,23.0,17.0,-100.00,ENE,58,9.0,15.0,79,0.00,,,0.00,117.000000,,2013-03-05 21:32:00,
2013-03-05 16:01:00,23.0,18.0,-100.00,NE,51,10.0,17.0,80,0.00,,,0.00,88.000000,,2013-03-05 22:01:00,
2013-03-05 16:11:00,23.0,18.0,-100.00,NE,51,10.0,17.0,80,0.00,,,0.00,88.000000,,2013-03-05 22:11:00,
2013-03-05 16:22:00,23.0,18.0,-100.00,NE,51,10.0,17.0,80,0.00,,,0.00,88.000000,,2013-03-05 22:22:00,
2013-03-05 16:32:00,23.0,18.0,-100.00,NE,51,10.0,17.0,80,0.00,,,0.00,88.000000,,2013-03-05 22:32:00,
2013-03-05 17:01:00,22.0,18.0,-100.00,NE,43,8.0,13.0,83,0.00,,,0.00,39.000000,,2013-03-05 23:01:00,
2013-03-05 17:11:00,22.0,18.0,-100.00,NE,43,8.0,13.0,83,0.00,,,0.00,39.000000,,2013-03-05 23:11:00,
2013-03-05 17:21:00,22.0,18.0,-100.00,NE,43,8.0,13.0,83,0.00,,,0.00,39.000000,,2013-03-05 23:21:00,
2013-03-05 17:32:00,22.0,18.0,-100.00,NE,43,8.0,13.0,83,0.00,,,0.00,39.000000,,2013-03-05 23:32:00,
2013-03-05 17:53:00,21.0,18.0,-100.00,NE,42,7.0,14.0,88,0.00,,,0.00,11.000000,,2013-03-05 23:53:00,
2013-03-05 18:01:00,21.0,18.0,-100.00,NE,42,7.0,14.0,88,0.00,,,0.00,11.000000,,2013-03-06 00:01:00,
2013-03-05 18:11:00,21.0,18.0,-100.00,NE,42,7.0,14.0,88,0.00,,,0.00,11.000000,,2013-03-06 00:11:00,
2013-03-05 18:21:00,21.0,18.0,-100.00,NE,42,7.0,14.0,88,0.00,,,0.00,11.000000,,2013-03-06 00:21:00,
2013-03-05 18:32:00,21.0,18.0,-100.00,NE,42,7.0,14.0,88,0.00,,,0.00,11.000000,,2013-03-06 00:32:00,
2013-03-05 19:02:00,21.0,18.0,-100.00,NE,45,6.0,14.0,87,0.00,,,0.00,1.000000,,2013-03-06 01:02:00,
2013-03-05 19:11:00,21.0,18.0,-100.00,NE,45,6.0,14.0,87,0.00,,,0.00,1.000000,,2013-03-06 01:11:00,
2013-03-05 19:21:00,21.0,18.0,-100.00,NE,45,6.0,14.0,87,0.00,,,0.00,1.000000,,2013-03-06 01:21:00,
2013-03-05 19:32:00,21.0,18.0,-100.00,NE,45,6.0,14.0,87,0.00,,,0.00,1.000000,,2013-03-06 01:32:00,
2013-03-05 19:52:00,21.0,18.0,-100.00,NE,53,6.0,13.0,87,0.00,,,0.00,1.000000,,2013-03-06 01:52:00,
2013-03-05 20:01:00,21.0,18.0,-100.00,NE,53,6.0,13.0,87,0.00,,,0.00,1.000000,,2013-03-06 02:01:00,
2013-03-05 20:11:00,21.0,18.0,-100.00,NE,53,6.0,13.0,87,0.00,,,0.00,1.000000,,2013-03-06 02:11:00,
2013-03-05 20:22:00,21.0,18.0,-100.00,NE,53,6.0,13.0,87,0.00,,,0.00,1.000000,,2013-03-06 02:22:00,
2013-03-05 20:32:00,21.0,18.0,-100.00,NE,53,6.0,13.0,87,0.00,,,0.00,1.000000,,2013-03-06 02:32:00,
2013-03-05 21:02:00,20.0,16.0,-100.00,NE,38,7.0,12.0,86,0.00,,,0.00,1.000000,,2013-03-06 03:02:00,
2013-03-05 21:11:00,20.0,16.0,-100.00,NE,38,7.0,12.0,86,0.00,,,0.00,1.000000,,2013-03-06 03:11:00,
2013-03-05 21:22:00,20.0,16.0,-100.00,NE,38,7.0,12.0,86,0.00,,,0.00,1.000000,,2013-03-06 03:22:00,
2013-03-05 21:32:00,20.0,16.0,-100.00,NE,38,7.0,12.0,86,0.00,,,0.00,1.000000,,2013-03-06 03:32:00,
2013-03-05 21:52:00,20.0,17.0,-100.00,NNE,27,5.0,10.0,88,0.00,,,0.00,1.000000,,2013-03-06 03:52:00,
2013-03-05 22:02:00,20.0,17.0,-100.00,NNE,27,5.0,10.0,88,0.00,,,0.00,1.000000,,2013-03-06 04:02:00,
2013-03-05 22:11:00,20.0,17.0,-100.00,NNE,27,5.0,10.0,88,0.00,,,0.00,1.000000,,2013-03-06 04:11:00,
2013-03-05 22:21:00,20.0,17.0,-100.00,NNE,27,5.0,10.0,88,0.00,,,0.00,1.000000,,2013-03-06 04:21:00,
2013-03-05 22:32:00,20.0,17.0,-100.00,NNE,27,5.0,10.0,88,0.00,,,0.00,1.000000,,2013-03-06 04:32:00,
2013-03-05 22:52:00,20.0,17.0,-100.00,NNE,31,4.0,7.0,88,0.00,,,0.00,1.000000,,2013-03-06 04:52:00,
2013-03-05 23:02:00,20.0,17.0,-100.00,NNE,31,4.0,7.0,88,0.00,,,0.00,1.000000,,2013-03-06 05:02:00,
2013-03-05 23:11:00,20.0,17.0,-100.00,NNE,31,4.0,7.0,88,0.00,,,0.00,1.000000,,2013-03-06 05:11:00,
2013-03-05 23:22:00,20.0,17.0,-100.00,NNE,31,4.0,7.0,88,0.00,,,0.00,1.000000,,2013-03-06 05:22:00,
2013-03-05 23:32:00,20.0,17.0,-100.00,NNE,31,4.0,7.0,88,0.00,,,0.00,1.000000,,2013-03-06 05:32:00,
2013-03-05 23:52:00,20.0,17.0,-100.00,North,353,7.0,10.0,87,0.00,,,0.00,1.000000,,2013-03-06 05:52:00,